createdAt,value
2018-04-15T00:02:11.460Z,6.40
2018-04-15T00:04:39.689Z,6.30
2018-04-15T00:07:20.157Z,6.50
2018-04-15T00:09:47.634Z,6.50
2018-04-15T00:12:16.082Z,6.50
2018-04-15T00:14:44.312Z,6.60
2018-04-15T00:17:11.776Z,6.60
2018-04-15T00:19:39.258Z,6.60
2018-04-15T00:22:06.719Z,6.60
2018-04-15T00:24:34.194Z,6.70
2018-04-15T00:27:01.662Z,6.80
2018-04-15T00:29:29.305Z,6.80
2018-04-15T00:31:59.850Z,6.80
2018-04-15T00:34:27.318Z,6.70
2018-04-15T00:39:57.250Z,6.70
2018-04-15T00:45:30.831Z,6.80
2018-04-15T00:47:58.281Z,6.80
2018-04-15T00:50:26.509Z,6.70
2018-04-15T00:55:46.792Z,6.80
2018-04-15T00:58:14.258Z,6.80
2018-04-15T01:00:51.666Z,6.70
2018-04-15T01:03:19.125Z,6.70
2018-04-15T01:05:47.555Z,6.80
2018-04-15T01:08:15.008Z,6.70
2018-04-15T01:10:43.257Z,6.80
2018-04-15T01:13:12.623Z,6.60
2018-04-15T01:15:44.293Z,6.80
2018-04-15T01:18:13.701Z,7.00
2018-04-15T01:20:41.941Z,6.80
2018-04-15T01:23:10.386Z,7.20
2018-04-15T01:25:39.606Z,6.90
2018-04-15T01:28:07.064Z,6.70
2018-04-15T01:30:35.297Z,7.00
2018-04-15T01:33:02.762Z,7.30
2018-04-15T01:35:30.233Z,6.90
2018-04-15T01:37:57.693Z,6.90
2018-04-15T01:40:25.159Z,7.00
2018-04-15T01:42:52.614Z,6.90
2018-04-15T01:45:22.016Z,7.00
2018-04-15T01:47:49.478Z,7.00
2018-04-15T01:50:29.530Z,7.00
2018-04-15T01:52:56.986Z,7.20
2018-04-15T01:55:24.454Z,7.00
2018-04-15T01:57:51.909Z,6.90
2018-04-15T02:00:19.376Z,7.00
2018-04-15T02:02:53.536Z,7.00
2018-04-15T02:05:23.701Z,7.00
2018-04-15T02:08:01.055Z,7.20
2018-04-15T02:10:28.529Z,7.00
2018-04-15T02:12:55.989Z,7.00
2018-04-15T02:15:23.458Z,7.00
2018-04-15T02:17:52.912Z,7.10
2018-04-15T02:20:25.008Z,7.20
2018-04-15T02:22:52.461Z,7.30
2018-04-15T02:25:20.720Z,7.20
2018-04-15T02:30:41.449Z,7.30
2018-04-15T02:33:08.907Z,7.10
2018-04-15T02:35:36.385Z,7.20
2018-04-15T02:38:13.913Z,7.20
2018-04-15T02:40:41.384Z,7.30
2018-04-15T02:43:08.845Z,7.40
2018-04-15T02:48:28.836Z,7.30
2018-04-15T02:50:56.302Z,7.30
2018-04-15T02:53:23.770Z,7.50
2018-04-15T02:55:51.237Z,7.70
2018-04-15T02:58:18.702Z,8.00
2018-04-15T03:00:46.158Z,7.80
2018-04-15T03:03:14.379Z,7.90
2018-04-15T03:05:41.850Z,8.10
2018-04-15T03:08:19.079Z,7.80
2018-04-15T03:10:46.545Z,7.70
2018-04-15T03:13:14.012Z,7.40
2018-04-15T03:15:42.477Z,7.40
2018-04-15T03:18:09.930Z,7.30
2018-04-15T03:20:37.402Z,7.20
2018-04-15T03:23:04.861Z,7.10
2018-04-15T03:25:34.277Z,7.00
2018-04-15T03:28:01.741Z,7.00
2018-04-15T03:30:29.975Z,6.90
2018-04-15T03:32:57.436Z,6.70
2018-04-15T03:35:24.894Z,6.80
2018-04-15T03:37:52.355Z,6.60
2018-04-15T03:40:19.818Z,6.70
2018-04-15T03:42:51.370Z,6.60
2018-04-15T03:45:19.606Z,6.50
2018-04-15T03:47:47.065Z,6.30
2018-04-15T03:50:14.525Z,6.50
2018-04-15T03:52:41.982Z,6.50
2018-04-15T03:55:09.458Z,6.50
2018-04-15T03:57:39.977Z,6.40
2018-04-15T04:00:12.261Z,6.40
2018-04-15T04:02:41.462Z,6.50
2018-04-15T04:05:28.741Z,6.50
2018-04-15T04:07:56.202Z,6.50
2018-04-15T04:10:23.670Z,6.60
2018-04-15T04:12:51.125Z,6.60
2018-04-15T04:15:24.685Z,6.70
2018-04-15T04:18:04.069Z,6.90
2018-04-15T04:20:44.272Z,7.00
2018-04-15T04:23:23.635Z,6.90
2018-04-15T04:25:56.903Z,7.10
2018-04-15T04:28:30.405Z,7.20
2018-04-15T04:31:17.073Z,7.40
2018-04-15T04:33:54.449Z,7.20
2018-04-15T04:36:21.917Z,7.30
2018-04-15T04:38:49.365Z,7.30
2018-04-15T04:41:32.355Z,7.30
2018-04-15T04:43:59.810Z,7.10
2018-04-15T04:46:27.279Z,7.30
2018-04-15T04:48:54.737Z,7.40
2018-04-15T04:51:39.642Z,7.40
2018-04-15T04:54:07.097Z,7.50
2018-04-15T04:56:34.559Z,7.40
2018-04-15T04:59:02.010Z,7.60
2018-04-15T05:01:29.465Z,7.60
2018-04-15T05:04:00.830Z,7.80
2018-04-15T05:06:29.062Z,7.80
2018-04-15T05:08:56.517Z,8.00
2018-04-15T05:11:49.826Z,7.80
2018-04-15T05:14:17.278Z,7.90
2018-04-15T05:16:44.750Z,8.00
2018-04-15T05:19:31.262Z,8.10
2018-04-15T05:21:58.725Z,8.20
2018-04-15T05:24:26.223Z,8.20
2018-04-15T05:26:53.658Z,8.40
2018-04-15T05:29:21.122Z,8.50
2018-04-15T05:31:48.590Z,8.50
2018-04-15T05:34:16.057Z,8.60
2018-04-15T05:36:43.526Z,8.60
2018-04-15T05:39:10.983Z,8.70
2018-04-15T05:41:40.209Z,8.80
2018-04-15T05:44:07.670Z,8.90
2018-04-15T05:46:36.061Z,8.80
2018-04-15T05:49:03.509Z,8.80
2018-04-15T05:51:31.742Z,8.90
2018-04-15T05:53:59.201Z,9.10
2018-04-15T05:56:26.686Z,9.40
2018-04-15T05:58:54.150Z,9.10
2018-04-15T06:01:22.620Z,9.30
2018-04-15T06:03:58.330Z,9.30
2018-04-15T06:06:25.802Z,9.40
2018-04-15T06:08:56.994Z,9.50
2018-04-15T06:11:29.806Z,9.70
2018-04-15T06:19:54.733Z,9.90
2018-04-15T06:22:22.205Z,10.00
2018-04-15T06:24:49.669Z,10.10
2018-04-15T06:27:17.142Z,10.30
2018-04-15T06:30:01.998Z,10.40
2018-04-15T06:32:46.161Z,10.60
2018-04-15T06:35:13.614Z,10.90
2018-04-15T06:37:41.086Z,11.00
2018-04-15T06:40:10.472Z,11.10
2018-04-15T06:43:01.879Z,11.00
2018-04-15T06:45:32.671Z,11.20
2018-04-15T06:48:00.145Z,11.00
2018-04-15T06:50:27.607Z,10.90
2018-04-15T06:52:55.078Z,10.90
2018-04-15T06:55:22.538Z,10.80
2018-04-15T06:57:50.778Z,10.80
2018-04-15T07:00:19.213Z,10.80
2018-04-15T07:02:47.445Z,11.10
2018-04-15T07:05:19.381Z,11.10
2018-04-15T07:07:48.609Z,11.50
2018-04-15T07:10:16.074Z,11.60
2018-04-15T07:12:43.549Z,11.80
2018-04-15T07:15:28.637Z,12.10
2018-04-15T07:17:56.113Z,12.10
2018-04-15T07:20:23.582Z,12.70
2018-04-15T07:22:51.046Z,12.80
2018-04-15T07:25:18.509Z,12.90
2018-04-15T07:27:45.981Z,12.80
2018-04-15T07:30:13.445Z,12.80
2018-04-15T07:32:40.923Z,12.60
2018-04-15T07:35:08.392Z,12.60
2018-04-15T07:37:35.869Z,12.50
2018-04-15T07:40:03.342Z,12.30
2018-04-15T07:42:30.817Z,12.20
2018-04-15T07:44:58.273Z,12.10
2018-04-15T07:47:25.748Z,12.00
2018-04-15T07:49:53.218Z,12.00
2018-04-15T07:52:20.692Z,12.00
2018-04-15T07:54:48.153Z,12.10
2018-04-15T07:57:16.850Z,12.10
2018-04-15T07:59:45.239Z,12.10
2018-04-15T08:02:12.706Z,12.10
2018-04-15T08:04:40.179Z,11.90
2018-04-15T08:07:07.650Z,11.90
2018-04-15T08:09:56.671Z,11.90
2018-04-15T08:12:24.153Z,12.10
2018-04-15T08:15:01.542Z,12.20
2018-04-15T08:17:29.838Z,12.50
2018-04-15T08:19:57.276Z,12.70
2018-04-15T08:22:24.745Z,12.40
2018-04-15T08:24:52.207Z,12.40
2018-04-15T08:27:19.689Z,12.50
2018-04-15T08:29:47.167Z,12.40
2018-04-15T08:32:14.637Z,12.50
2018-04-15T08:34:42.106Z,12.60
2018-04-15T08:37:09.578Z,12.60
2018-04-15T08:39:37.046Z,12.80
2018-04-15T08:42:04.523Z,13.10
2018-04-15T08:44:31.978Z,13.30
2018-04-15T08:46:59.455Z,13.50
2018-04-15T08:49:26.913Z,13.60
2018-04-15T08:51:54.387Z,13.70
2018-04-15T08:54:21.857Z,13.80
2018-04-15T08:56:49.330Z,13.60
2018-04-15T08:59:16.793Z,13.50
2018-04-15T09:01:44.264Z,13.50
2018-04-15T09:04:11.730Z,13.30
2018-04-15T09:06:39.194Z,13.40
2018-04-15T09:09:06.702Z,13.60
2018-04-15T09:11:34.137Z,13.70
2018-04-15T09:14:01.611Z,13.80
2018-04-15T09:16:29.079Z,13.90
2018-04-15T09:18:56.560Z,13.80
2018-04-15T09:21:24.025Z,13.90
2018-04-15T09:23:51.493Z,13.90
2018-04-15T09:26:18.959Z,13.80
2018-04-15T09:28:46.430Z,13.80
2018-04-15T09:31:13.898Z,13.80
2018-04-15T09:33:41.369Z,13.80
2018-04-15T09:36:08.832Z,13.80
2018-04-15T09:38:36.315Z,13.70
2018-04-15T09:41:03.794Z,13.60
2018-04-15T09:43:31.261Z,13.80
2018-04-15T09:45:58.721Z,13.90
2018-04-15T09:48:26.198Z,14.00
2018-04-15T09:50:53.666Z,14.20
2018-04-15T09:53:21.137Z,14.40
2018-04-15T09:55:48.602Z,14.60
2018-04-15T09:58:16.074Z,14.80
2018-04-15T10:00:43.543Z,15.00
2018-04-15T10:03:11.017Z,15.40
2018-04-15T10:05:38.483Z,15.70
2018-04-15T10:08:05.958Z,16.10
2018-04-15T10:10:33.423Z,16.40
2018-04-15T10:13:00.895Z,16.70
2018-04-15T10:15:28.356Z,17.00
2018-04-15T10:17:55.843Z,17.40
2018-04-15T10:20:23.301Z,17.60
2018-04-15T10:22:50.772Z,18.10
2018-04-15T10:25:18.254Z,18.40
2018-04-15T10:27:45.721Z,18.30
2018-04-15T10:30:13.190Z,18.30
2018-04-15T10:32:40.704Z,18.10
2018-04-15T10:35:08.126Z,17.60
2018-04-15T10:37:35.603Z,17.20
2018-04-15T10:40:03.070Z,16.80
2018-04-15T10:42:30.538Z,16.70
2018-04-15T10:44:58.001Z,16.60
2018-04-15T10:47:25.474Z,16.60
2018-04-15T10:49:52.934Z,16.60
2018-04-15T10:52:20.404Z,16.70
2018-04-15T10:54:47.865Z,16.90
2018-04-15T10:57:15.353Z,16.90
2018-04-15T10:59:42.837Z,16.90
2018-04-15T11:02:10.301Z,16.60
2018-04-15T11:04:37.805Z,16.40
2018-04-15T11:07:05.239Z,16.40
2018-04-15T11:09:32.704Z,16.50
2018-04-15T11:12:00.161Z,16.50
2018-04-15T11:14:27.630Z,16.40
2018-04-15T11:16:55.089Z,16.10
2018-04-15T11:19:22.580Z,15.80
2018-04-15T11:21:50.017Z,15.90
2018-04-15T11:24:17.501Z,15.90
2018-04-15T11:26:44.957Z,15.70
2018-04-15T11:29:12.422Z,15.80
2018-04-15T11:31:39.888Z,15.90
2018-04-15T11:34:07.354Z,16.00
2018-04-15T11:36:34.818Z,16.10
2018-04-15T11:39:02.288Z,16.20
2018-04-15T11:41:30.757Z,16.60
2018-04-15T11:43:58.997Z,17.20
2018-04-15T11:46:26.462Z,17.40
2018-04-15T11:48:53.931Z,17.40
2018-04-15T11:51:21.394Z,17.80
2018-04-15T11:53:48.875Z,18.20
2018-04-15T11:56:16.343Z,18.50
2018-04-15T11:58:44.583Z,18.90
2018-04-15T12:01:12.813Z,19.00
2018-04-15T12:03:40.278Z,19.00
2018-04-15T12:06:07.744Z,19.10
2018-04-15T12:08:35.213Z,19.30
2018-04-15T12:11:02.669Z,19.30
2018-04-15T12:13:30.139Z,19.40
2018-04-15T12:16:03.389Z,19.60
2018-04-15T12:18:30.853Z,19.60
2018-04-15T12:20:58.331Z,19.30
2018-04-15T12:23:26.701Z,19.00
2018-04-15T12:25:54.157Z,19.00
2018-04-15T12:28:22.395Z,19.10
2018-04-15T12:30:51.015Z,19.40
2018-04-15T12:33:19.246Z,19.00
2018-04-15T12:35:46.734Z,18.70
2018-04-15T12:38:14.193Z,19.10
2018-04-15T12:40:41.650Z,19.00
2018-04-15T12:43:09.125Z,18.90
2018-04-15T12:45:36.581Z,18.90
2018-04-15T12:48:04.050Z,19.00
2018-04-15T12:50:31.537Z,18.70
2018-04-15T12:52:59.007Z,18.50
2018-04-15T12:55:26.465Z,18.50
2018-04-15T12:57:53.931Z,18.40
2018-04-15T13:00:21.388Z,18.40
2018-04-15T13:02:48.857Z,18.50
2018-04-15T13:05:16.330Z,18.60
2018-04-15T13:07:43.804Z,18.90
2018-04-15T13:10:11.274Z,19.00
2018-04-15T13:12:38.730Z,19.00
2018-04-15T13:15:06.212Z,19.10
2018-04-15T13:17:33.661Z,18.70
2018-04-15T13:20:01.898Z,18.50
2018-04-15T13:22:29.362Z,18.20
2018-04-15T13:24:56.841Z,18.50
2018-04-15T13:27:24.296Z,18.60
2018-04-15T13:29:51.762Z,18.80
2018-04-15T13:32:19.226Z,18.80
2018-04-15T13:34:46.703Z,18.70
2018-04-15T13:37:14.163Z,18.50
2018-04-15T13:39:41.625Z,18.40
2018-04-15T13:42:09.086Z,18.20
2018-04-15T13:44:36.571Z,18.20
2018-04-15T13:47:04.054Z,18.10
2018-04-15T13:49:31.521Z,18.00
2018-04-15T13:51:58.986Z,18.00
2018-04-15T13:54:26.469Z,17.90
2018-04-15T13:56:53.922Z,17.90
2018-04-15T13:59:21.385Z,18.00
2018-04-15T14:01:48.853Z,18.10
2018-04-15T14:04:16.354Z,18.30
2018-04-15T14:06:43.826Z,18.40
2018-04-15T14:09:11.298Z,18.40
2018-04-15T14:11:38.817Z,18.40
2018-04-15T14:14:06.249Z,18.40
2018-04-15T14:16:34.559Z,18.60
2018-04-15T14:19:02.025Z,18.60
2018-04-15T14:21:29.488Z,18.60
2018-04-15T14:23:56.955Z,18.50
2018-04-15T14:26:24.418Z,18.60
2018-04-15T14:28:51.894Z,18.70
2018-04-15T14:31:19.366Z,18.60
2018-04-15T14:33:46.967Z,19.00
2018-04-15T14:36:15.210Z,18.60
2018-04-15T14:38:42.669Z,18.50
2018-04-15T14:41:10.151Z,18.30
2018-04-15T14:43:37.610Z,18.10
2018-04-15T14:46:05.878Z,18.10
2018-04-15T14:48:33.341Z,18.00
2018-04-15T14:51:00.815Z,18.00
2018-04-15T14:53:28.279Z,18.00
2018-04-15T14:55:55.754Z,18.10
2018-04-15T14:58:23.213Z,18.00
2018-04-15T15:00:50.686Z,17.90
2018-04-15T15:03:18.146Z,17.80
2018-04-15T15:05:45.626Z,17.70
2018-04-15T15:08:13.086Z,17.60
2018-04-15T15:10:40.555Z,17.50
2018-04-15T15:13:08.018Z,17.40
2018-04-15T15:15:36.250Z,17.10
2018-04-15T15:18:03.702Z,16.90
2018-04-15T15:20:31.166Z,17.00
2018-04-15T15:22:58.633Z,17.10
2018-04-15T15:25:26.105Z,17.30
2018-04-15T15:27:53.566Z,17.60
2018-04-15T15:30:21.034Z,17.70
2018-04-15T15:32:48.493Z,17.60
2018-04-15T15:35:16.726Z,17.50
2018-04-15T15:37:44.189Z,17.50
2018-04-15T15:40:11.653Z,17.60
2018-04-15T15:42:39.106Z,17.50
2018-04-15T15:45:06.577Z,17.60
2018-04-15T15:47:34.041Z,17.60
2018-04-15T15:50:01.505Z,17.70
2018-04-15T15:52:28.964Z,17.70
2018-04-15T15:54:57.199Z,17.70
2018-04-15T15:57:24.658Z,17.60
2018-04-15T15:59:52.128Z,17.70
2018-04-15T16:02:19.587Z,17.30
2018-04-15T16:04:47.066Z,17.20
2018-04-15T16:07:14.538Z,17.20
2018-04-15T16:09:42.007Z,17.10
2018-04-15T16:12:09.466Z,17.00
2018-04-15T16:14:37.702Z,16.90
2018-04-15T16:17:05.162Z,16.80
2018-04-15T16:19:32.634Z,16.90
2018-04-15T16:22:00.094Z,16.80
2018-04-15T16:24:27.567Z,16.90
2018-04-15T16:26:55.029Z,16.80
2018-04-15T16:29:22.494Z,16.90
2018-04-15T16:31:49.953Z,16.80
2018-04-15T16:34:17.469Z,16.80
2018-04-15T16:36:44.885Z,16.90
2018-04-15T16:39:12.354Z,16.80
2018-04-15T16:41:40.577Z,16.80
2018-04-15T16:44:08.062Z,16.90
2018-04-15T16:46:35.526Z,16.80
2018-04-15T16:49:02.990Z,16.80
2018-04-15T16:51:30.461Z,16.80
2018-04-15T16:53:57.955Z,16.90
2018-04-15T16:56:25.397Z,17.00
2018-04-15T16:58:52.853Z,17.10
2018-04-15T17:01:20.321Z,17.10
2018-04-15T17:03:47.768Z,17.10
2018-04-15T17:06:15.243Z,17.10
2018-04-15T17:08:42.698Z,17.00
2018-04-15T17:11:10.189Z,16.90
2018-04-15T17:13:37.647Z,16.80
2018-04-15T17:16:05.157Z,16.80
2018-04-15T17:18:32.586Z,16.70
2018-04-15T17:21:00.053Z,16.60
2018-04-15T17:23:27.518Z,16.30
2018-04-15T17:25:55.041Z,16.20
2018-04-15T17:28:22.492Z,16.10
2018-04-15T17:30:49.971Z,16.00
2018-04-15T17:33:17.434Z,15.80
2018-04-15T17:35:44.899Z,15.60
2018-04-15T17:38:12.367Z,15.50
2018-04-15T17:40:39.838Z,15.30
2018-04-15T17:43:07.302Z,15.20
2018-04-15T17:45:34.783Z,15.20
2018-04-15T17:48:02.251Z,15.10
2018-04-15T17:50:29.722Z,15.00
2018-04-15T17:52:57.204Z,14.80
2018-04-15T17:55:24.657Z,14.60
2018-04-15T17:57:52.117Z,14.40
2018-04-15T18:00:19.593Z,14.20
2018-04-15T18:02:47.058Z,14.10
2018-04-15T18:05:14.530Z,13.90
2018-04-15T18:07:41.997Z,13.80
2018-04-15T18:10:09.470Z,13.70
2018-04-15T18:12:36.974Z,13.60
2018-04-15T18:15:04.863Z,13.50
2018-04-15T18:17:32.319Z,13.30
2018-04-15T18:19:59.797Z,13.20
2018-04-15T18:22:27.257Z,13.10
2018-04-15T18:24:54.726Z,13.00
2018-04-15T18:27:22.180Z,12.80
2018-04-15T18:29:49.652Z,12.70
2018-04-15T18:32:17.109Z,12.60
2018-04-15T18:34:44.597Z,12.60
2018-04-15T18:37:12.058Z,12.50
2018-04-15T18:39:39.525Z,12.40
2018-04-15T18:42:06.998Z,12.40
2018-04-15T18:44:34.457Z,12.40
2018-04-15T18:47:01.930Z,12.40
2018-04-15T18:49:29.381Z,12.40
2018-04-15T18:51:56.854Z,12.50
2018-04-15T18:54:24.317Z,12.50
2018-04-15T18:56:51.791Z,12.50
2018-04-15T18:59:19.253Z,12.40
2018-04-15T19:01:46.721Z,12.40
2018-04-15T19:04:14.191Z,12.30
2018-04-15T19:06:41.670Z,12.20
2018-04-15T19:09:09.143Z,12.30
2018-04-15T19:11:36.617Z,12.30
2018-04-15T19:14:04.073Z,12.30
2018-04-15T19:16:31.555Z,12.20
2018-04-15T19:18:59.022Z,12.20
2018-04-15T19:21:27.082Z,12.20
2018-04-15T19:23:56.594Z,12.30
2018-04-15T19:26:25.824Z,12.30
2018-04-15T19:28:53.299Z,12.40
2018-04-15T19:31:20.803Z,12.30
2018-04-15T19:33:48.234Z,12.30
2018-04-15T19:36:16.611Z,12.20
2018-04-15T19:38:44.074Z,12.10
2018-04-15T19:41:12.320Z,12.10
2018-04-15T19:43:39.781Z,12.30
2018-04-15T19:46:07.247Z,12.10
2018-04-15T19:48:35.756Z,12.00
2018-04-15T19:51:03.924Z,12.00
2018-04-15T19:53:31.381Z,12.30
2018-04-15T19:55:58.849Z,11.90
2018-04-15T19:58:26.313Z,12.00
2018-04-15T20:00:53.786Z,12.00
2018-04-15T20:03:21.249Z,12.10
2018-04-15T20:05:48.721Z,12.10
2018-04-15T20:08:16.182Z,12.10
2018-04-15T20:10:43.658Z,12.00
2018-04-15T20:13:11.128Z,12.10
2018-04-15T20:15:40.541Z,12.10
2018-04-15T20:18:08.000Z,12.20
2018-04-15T20:20:35.473Z,12.30
2018-04-15T20:23:02.933Z,12.30
2018-04-15T20:25:31.506Z,12.40
2018-04-15T20:27:58.969Z,12.60
2018-04-15T20:30:26.456Z,12.40
2018-04-15T20:32:53.913Z,12.40
2018-04-15T20:35:32.313Z,12.40
2018-04-15T20:38:01.651Z,12.40
2018-04-15T20:40:29.155Z,12.40
2018-04-15T20:42:56.626Z,12.40
2018-04-15T20:45:24.082Z,12.40
2018-04-15T20:47:52.318Z,12.40
2018-04-15T20:50:21.691Z,12.20
2018-04-15T20:52:49.926Z,12.40
2018-04-15T20:55:17.390Z,12.60
2018-04-15T20:57:47.993Z,12.40
2018-04-15T21:00:15.469Z,12.30
2018-04-15T21:02:42.943Z,12.20
2018-04-15T21:05:12.340Z,12.10
2018-04-15T21:07:40.581Z,12.10
2018-04-15T21:10:11.070Z,12.30
2018-04-15T21:12:39.307Z,12.00
2018-04-15T21:15:08.673Z,12.10
2018-04-15T21:17:37.909Z,12.00
2018-04-15T21:20:06.270Z,12.10
2018-04-15T21:22:34.510Z,12.10
2018-04-15T21:25:02.014Z,12.10
2018-04-15T21:27:29.485Z,12.10
2018-04-15T21:29:56.953Z,12.10
2018-04-15T21:32:24.418Z,12.30
2018-04-15T21:34:51.878Z,11.90
2018-04-15T21:37:19.345Z,11.90
2018-04-15T21:39:46.810Z,11.80
2018-04-15T21:42:14.287Z,11.70
2018-04-15T21:44:42.717Z,11.70
2018-04-15T21:47:13.371Z,11.90
2018-04-15T21:49:40.845Z,11.70
2018-04-15T21:52:08.322Z,11.70
2018-04-15T21:54:35.786Z,11.60
2018-04-15T21:57:07.240Z,11.50
2018-04-15T21:59:34.707Z,11.50
2018-04-15T22:02:02.187Z,11.40
2018-04-15T22:04:30.564Z,11.30
2018-04-15T22:06:58.793Z,11.50
2018-04-15T22:09:26.259Z,11.40
2018-04-15T22:12:05.506Z,11.30
2018-04-15T22:14:32.969Z,11.20
2018-04-15T22:17:00.445Z,11.20
2018-04-15T22:19:28.903Z,11.10
2018-04-15T22:21:57.137Z,11.10
2018-04-15T22:24:24.596Z,11.40
2018-04-15T22:26:52.083Z,11.00
2018-04-15T22:29:20.517Z,11.00
2018-04-15T22:31:48.789Z,10.80
2018-04-15T22:34:18.217Z,10.70
2018-04-15T22:36:46.454Z,10.80
2018-04-15T22:39:13.923Z,10.80
2018-04-15T22:41:41.394Z,10.80
2018-04-15T22:44:08.853Z,10.80
2018-04-15T22:46:36.325Z,10.70
2018-04-15T22:49:09.439Z,10.80
2018-04-15T22:51:36.912Z,10.80
2018-04-15T22:54:04.373Z,10.70
2018-04-15T22:56:37.446Z,11.00
2018-04-15T22:59:04.913Z,10.80
2018-04-15T23:01:32.390Z,10.90
2018-04-15T23:03:59.846Z,10.90
2018-04-15T23:06:27.319Z,11.00
2018-04-15T23:08:54.772Z,11.10
2018-04-15T23:11:23.053Z,11.10
2018-04-15T23:13:50.488Z,11.10
2018-04-15T23:16:17.947Z,11.10
2018-04-15T23:18:47.338Z,11.20
2018-04-15T23:21:14.798Z,11.10
2018-04-15T23:23:43.402Z,11.10
2018-04-15T23:26:10.867Z,11.10
2018-04-15T23:28:38.338Z,11.20
2018-04-15T23:31:05.802Z,11.00
2018-04-15T23:33:33.276Z,10.90
2018-04-15T23:36:00.739Z,10.90
2018-04-15T23:38:28.976Z,10.80
2018-04-15T23:40:56.434Z,11.00
2018-04-15T23:43:23.914Z,10.80
2018-04-15T23:45:51.374Z,10.80
2018-04-15T23:48:18.846Z,10.60
2018-04-15T23:50:47.288Z,10.60
2018-04-15T23:53:15.532Z,10.50
2018-04-15T23:55:42.989Z,10.30
2018-04-15T23:58:10.466Z,10.50
